»·PEaware :: PH-TIM KBFL-KBFL

PH-TIM :: KBFL-KBFL

FLIGHT INFORMATION

Flight Status: Arrived
Operator: Privately registered:
Netherlands
More flights under this callsign
Pilot: Tim P. (6337)
Aircraft: CESSNA 172 SKYHAWK
(C172)
More flights by this aircraft type
Origin: KBFL Meadows
United States
Destination: KBFL Meadows
United States
More flights between these airports :: More routes between these airports
Route: +
File this flight plan on PilotEdge
Remarks:
Altitude:
(Current/Filed)
0ft
Speed:
(Current/Filed)
0kts
Departed: 28-Sep-17 11:06 AM
Arrived: 28-Sep-17 12:07 PM
Distance/Time
Traveled:
0nm/1:01
Distance/Time
To Go:
Arrived

Flight Plot

Page will automatically refresh every two minutes.


Map Options




Map Legend


Flown Route
Filed Route
Departure Airport
Arrival Airport
Navaid (VOR, NDB)
Fix

Horizontal Profiles

Position Reports

Time Latitude Longitude Heading Altitude Ground
Speed
28-Sep-17 11:02 35.435477 -119.052258 265 504ft 8kts
28-Sep-17 11:03 35.434096 -119.054278 136 492ft 11kts
28-Sep-17 11:04 35.431207 -119.050782 134 482ft 15kts
28-Sep-17 11:05 35.428311 -119.047281 136 481ft 12kts
28-Sep-17 11:06 35.425606 -119.044769 247 474ft 0kts
28-Sep-17 11:07 35.425606 -119.044770 246 474ft 0kts
28-Sep-17 11:08 35.425606 -119.044769 246 474ft 0kts
28-Sep-17 11:09 35.425606 -119.044769 246 474ft 0kts
28-Sep-17 11:10 35.427417 -119.048413 314 474ft 66kts
28-Sep-17 11:11 35.442864 -119.068517 307 1180ft 87kts
28-Sep-17 11:12 35.455913 -119.093363 283 1947ft 88kts
28-Sep-17 11:13 35.456577 -119.123679 266 2542ft 99kts
28-Sep-17 11:14 35.455192 -119.156798 266 2644ft 97kts
28-Sep-17 11:15 35.451843 -119.189268 240 2721ft 96kts
28-Sep-17 11:16 35.436253 -119.212636 216 2803ft 95kts
28-Sep-17 11:17 35.418521 -119.235677 236 2904ft 94kts
28-Sep-17 11:18 35.402294 -119.259002 206 3016ft 91kts
28-Sep-17 11:19 35.379099 -119.273427 205 3141ft 86kts
28-Sep-17 11:20 35.359064 -119.285909 205 3594ft 85kts
28-Sep-17 11:21 35.334441 -119.300985 205 3569ft 104kts
28-Sep-17 11:22 35.330145 -119.328894 293 3568ft 111kts
28-Sep-17 11:23 35.338545 -119.364523 277 3565ft 110kts
28-Sep-17 11:24 35.343210 -119.401143 276 3565ft 108kts
28-Sep-17 11:25 35.347688 -119.437366 276 3565ft 107kts
28-Sep-17 11:26 35.349525 -119.471442 233 3916ft 96kts
28-Sep-17 11:27 35.323031 -119.473485 172 4019ft 117kts
28-Sep-17 11:28 35.292622 -119.468077 172 4020ft 105kts
28-Sep-17 11:29 35.264461 -119.463068 172 4023ft 101kts
28-Sep-17 11:30 35.236798 -119.458165 172 4024ft 100kts
28-Sep-17 11:31 35.209169 -119.453272 172 4024ft 100kts
28-Sep-17 11:32 35.181569 -119.448388 172 4024ft 100kts
28-Sep-17 11:33 35.154029 -119.443512 172 4024ft 100kts
28-Sep-17 11:34 35.151835 -119.414873 65 4025ft 106kts
28-Sep-17 11:35 35.156706 -119.380646 92 4025ft 104kts
28-Sep-17 11:36 35.157117 -119.345228 90 4024ft 105kts
28-Sep-17 11:37 35.158725 -119.309702 87 4024ft 105kts
28-Sep-17 11:38 35.161645 -119.274236 85 4026ft 106kts
28-Sep-17 11:39 35.166264 -119.237011 81 4026ft 113kts
28-Sep-17 11:40 35.172836 -119.199196 78 4025ft 115kts
28-Sep-17 11:41 35.181532 -119.161736 73 4024ft 115kts
28-Sep-17 11:42 35.192704 -119.124771 68 4024ft 116kts
28-Sep-17 11:43 35.209011 -119.091591 43 4024ft 117kts
28-Sep-17 11:44 35.234930 -119.067844 34 4024ft 117kts
28-Sep-17 11:45 35.262175 -119.045988 33 4024ft 117kts
28-Sep-17 11:46 35.289258 -119.024387 33 4025ft 117kts
28-Sep-17 11:47 35.316388 -119.002717 33 4025ft 117kts
28-Sep-17 11:48 35.346274 -119.008201 334 4025ft 117kts
28-Sep-17 11:49 35.375421 -119.024790 333 4025ft 117kts
28-Sep-17 11:50 35.404843 -119.041546 333 4025ft 117kts
28-Sep-17 11:51 35.434232 -119.058292 333 4025ft 117kts
28-Sep-17 11:52 35.463704 -119.075098 333 4025ft 117kts
28-Sep-17 11:53 35.493132 -119.091892 333 4025ft 117kts
28-Sep-17 11:54 35.519310 -119.112023 260 4006ft 113kts
28-Sep-17 11:55 35.495696 -119.134750 211 4025ft 110kts
28-Sep-17 11:56 35.469819 -119.154544 211 4025ft 110kts
28-Sep-17 11:57 35.443841 -119.174375 211 4025ft 110kts
28-Sep-17 11:58 35.417860 -119.194230 212 4024ft 110kts
28-Sep-17 11:59 35.396559 -119.220243 224 4070ft 108kts
28-Sep-17 12:00 35.372953 -119.241756 192 3832ft 110kts
28-Sep-17 12:01 35.348609 -119.238759 169 3502ft 105kts
28-Sep-17 12:02 35.321335 -119.228045 114 3004ft 113kts
28-Sep-17 12:03 35.332577 -119.196679 36 2820ft 105kts
28-Sep-17 12:04 35.363641 -119.180681 33 2357ft 103kts
28-Sep-17 12:05 35.376265 -119.152970 66 1915ft 93kts
28-Sep-17 12:06 35.389281 -119.125356 63 1564ft 95kts
28-Sep-17 12:07 35.400822 -119.098219 70 1470ft 86kts
28-Sep-17 12:08 35.406234 -119.076036 79 1310ft 80kts
28-Sep-17 12:09 35.416163 -119.055136 45 908ft 66kts
28-Sep-17 12:10 35.430410 -119.052021 315 538ft 64kts
28-Sep-17 12:11 35.436298 -119.057760 70 489ft 0kts
28-Sep-17 12:12 35.436173 -119.056778 132 493ft 12kts
28-Sep-17 12:13 35.435248 -119.053692 45 501ft 7kts
28-Sep-17 12:14 35.435673 -119.052109 177 505ft 0kts
28-Sep-17 12:15 35.435673 -119.052109 177 505ft 0kts
28-Sep-17 12:16 35.435673 -119.052109 177 505ft 0kts

Navigation Log

Ident Type
1. KBFL Airport
2. KBFL Airport